EWG1EY ENZV-EDDV
Flight info
| Callsign | EWG1EY |
|---|---|
| Flight time | 1h 8m |
| Altitude | 35000 |
| Route | BIVKI DCT ATTUS DCT ELSOB N850 NIE NIE1R |
| Aircraft | A320/M-SDE3FGHIRWY/LB1 |
Departure
| Time | 2026-04-14 15:23 |
|---|---|
| Airport | Stavanger Airport, Sola (ENZV) |
Arrival
| Time | 2026-04-14 16:32 |
|---|---|
| Airport | Hannover Airport (EDDV) |
| Time | Latitude | Longitude | Altitude | Speed | Heading |
|---|---|---|---|---|---|
| 2026-04-14 14:53 | 58.88240 | 5.63107 | 26 ft | 0 kts | 255° |
| 2026-04-14 15:14 | 58.88241 | 5.63114 | 25 ft | 3 kts | 254° |
| 2026-04-14 15:14 | 58.88249 | 5.63163 | 27 ft | 4 kts | 245° |
| 2026-04-14 15:14 | 58.88262 | 5.63208 | 27 ft | 4 kts | 235° |
| 2026-04-14 15:14 | 58.88279 | 5.63248 | 29 ft | 4 kts | 216° |
| 2026-04-14 15:15 | 58.88300 | 5.63265 | 29 ft | 2 kts | 166° |
| 2026-04-14 15:15 | 58.88302 | 5.63265 | 29 ft | 1 kts | 165° |
| 2026-04-14 15:18 | 58.88277 | 5.63314 | 31 ft | 6 kts | 108° |
| 2026-04-14 15:18 | 58.88269 | 5.63399 | 30 ft | 12 kts | 124° |
| 2026-04-14 15:18 | 58.88190 | 5.63435 | 30 ft | 11 kts | 177° |
| 2026-04-14 15:19 | 58.88092 | 5.63438 | 30 ft | 21 kts | 179° |
| 2026-04-14 15:19 | 58.87965 | 5.63389 | 32 ft | 17 kts | 203° |
| 2026-04-14 15:19 | 58.87888 | 5.63325 | 31 ft | 10 kts | 203° |
| 2026-04-14 15:19 | 58.87827 | 5.63288 | 31 ft | 12 kts | 185° |
| 2026-04-14 15:20 | 58.87716 | 5.63294 | 31 ft | 15 kts | 178° |
| 2026-04-14 15:20 | 58.87616 | 5.63299 | 31 ft | 16 kts | 178° |
| 2026-04-14 15:20 | 58.87465 | 5.63302 | 31 ft | 23 kts | 181° |
| 2026-04-14 15:20 | 58.87311 | 5.63306 | 32 ft | 21 kts | 179° |
| 2026-04-14 15:21 | 58.87173 | 5.63307 | 34 ft | 18 kts | 178° |
| 2026-04-14 15:21 | 58.87057 | 5.63318 | 32 ft | 15 kts | 168° |
| 2026-04-14 15:21 | 58.86977 | 5.63409 | 31 ft | 12 kts | 138° |
| 2026-04-14 15:21 | 58.86949 | 5.63566 | 35 ft | 12 kts | 87° |
| 2026-04-14 15:22 | 58.86953 | 5.63708 | 37 ft | 14 kts | 87° |
| 2026-04-14 15:22 | 58.87002 | 5.63800 | 36 ft | 10 kts | 3° |
| 2026-04-14 15:22 | 58.87026 | 5.63798 | 36 ft | 0 kts | 357° |
| 2026-04-14 15:22 | 58.87071 | 5.63793 | 35 ft | 25 kts | 357° |
| 2026-04-14 15:23 | 58.87512 | 5.63782 | 34 ft | 97 kts | 1° |
| 2026-04-14 15:23 | 58.88384 | 5.63768 | 32 ft | 152 kts | 360° |
| 2026-04-14 15:23 | 58.89513 | 5.63746 | 457 ft | 165 kts | 360° |
| 2026-04-14 15:23 | 58.90654 | 5.63712 | 1250 ft | 164 kts | 360° |
| 2026-04-14 15:24 | 58.91840 | 5.63676 | 1718 ft | 180 kts | 0° |
| 2026-04-14 15:24 | 58.93176 | 5.63639 | 2045 ft | 203 kts | 0° |
| 2026-04-14 15:24 | 58.94658 | 5.63594 | 2443 ft | 224 kts | 1° |
| 2026-04-14 15:24 | 58.96292 | 5.63545 | 2904 ft | 246 kts | 1° |
| 2026-04-14 15:25 | 58.98057 | 5.63506 | 3582 ft | 259 kts | 5° |
| 2026-04-14 15:25 | 58.98643 | 5.63590 | 3832 ft | 260 kts | 12° |
| 2026-04-14 15:25 | 58.99956 | 5.64421 | 4490 ft | 259 kts | 33° |
| 2026-04-14 15:25 | 59.01308 | 5.66658 | 5319 ft | 256 kts | 59° |
| 2026-04-14 15:26 | 59.02008 | 5.69778 | 6183 ft | 254 kts | 84° |
| 2026-04-14 15:26 | 59.01951 | 5.73171 | 6968 ft | 254 kts | 108° |
| 2026-04-14 15:26 | 59.01136 | 5.76206 | 7752 ft | 258 kts | 131° |
| 2026-04-14 15:26 | 58.99690 | 5.78301 | 8528 ft | 265 kts | 156° |
| 2026-04-14 15:27 | 58.97951 | 5.79600 | 9320 ft | 271 kts | 159° |
| 2026-04-14 15:27 | 58.96162 | 5.80889 | 10138 ft | 277 kts | 159° |
| 2026-04-14 15:27 | 58.94346 | 5.82194 | 10930 ft | 280 kts | 159° |
| 2026-04-14 15:27 | 58.92506 | 5.83514 | 11761 ft | 284 kts | 159° |
| 2026-04-14 15:28 | 58.90650 | 5.84849 | 12601 ft | 286 kts | 160° |
| 2026-04-14 15:28 | 58.88773 | 5.86200 | 13444 ft | 289 kts | 160° |
| 2026-04-14 15:28 | 58.86886 | 5.87560 | 14053 ft | 301 kts | 160° |
| 2026-04-14 15:28 | 58.84848 | 5.89024 | 14209 ft | 324 kts | 160° |
| 2026-04-14 15:29 | 58.82662 | 5.90592 | 14369 ft | 345 kts | 160° |
| 2026-04-14 15:29 | 58.80381 | 5.92230 | 14870 ft | 353 kts | 160° |
| 2026-04-14 15:29 | 58.78065 | 5.93893 | 15502 ft | 357 kts | 160° |
| 2026-04-14 15:29 | 58.75723 | 5.95570 | 16157 ft | 361 kts | 160° |
| 2026-04-14 15:30 | 58.73361 | 5.97259 | 16799 ft | 364 kts | 160° |
| 2026-04-14 15:30 | 58.70981 | 5.98957 | 17229 ft | 365 kts | 160° |
| 2026-04-14 15:30 | 58.68589 | 6.00661 | 17637 ft | 367 kts | 160° |
| 2026-04-14 15:30 | 58.66191 | 6.02371 | 18048 ft | 369 kts | 160° |
| 2026-04-14 15:31 | 58.63779 | 6.04091 | 18467 ft | 371 kts | 160° |
| 2026-04-14 15:31 | 58.61351 | 6.05816 | 18829 ft | 373 kts | 160° |
| 2026-04-14 15:31 | 58.58905 | 6.07548 | 19199 ft | 375 kts | 160° |
| 2026-04-14 15:31 | 58.56454 | 6.09284 | 19567 ft | 377 kts | 160° |
| 2026-04-14 15:32 | 58.53986 | 6.11033 | 19943 ft | 379 kts | 160° |
| 2026-04-14 15:32 | 58.51505 | 6.12789 | 20322 ft | 381 kts | 160° |
| 2026-04-14 15:32 | 58.49010 | 6.14549 | 20708 ft | 383 kts | 160° |
| 2026-04-14 15:32 | 58.46499 | 6.16313 | 21107 ft | 386 kts | 160° |
| 2026-04-14 15:33 | 58.43974 | 6.18082 | 21500 ft | 388 kts | 161° |
| 2026-04-14 15:33 | 58.41432 | 6.19864 | 21899 ft | 391 kts | 161° |
| 2026-04-14 15:33 | 58.38865 | 6.21663 | 22309 ft | 394 kts | 161° |
| 2026-04-14 15:33 | 58.36283 | 6.23469 | 22714 ft | 397 kts | 161° |
| 2026-04-14 15:34 | 58.33684 | 6.25299 | 23134 ft | 400 kts | 160° |
| 2026-04-14 15:34 | 58.31121 | 6.27249 | 23558 ft | 404 kts | 159° |
| 2026-04-14 15:34 | 58.28527 | 6.29353 | 23933 ft | 407 kts | 158° |
| 2026-04-14 15:34 | 58.25922 | 6.31530 | 24281 ft | 411 kts | 158° |
| 2026-04-14 15:35 | 58.23292 | 6.33737 | 24640 ft | 415 kts | 158° |
| 2026-04-14 15:35 | 58.20640 | 6.35938 | 24993 ft | 418 kts | 158° |
| 2026-04-14 15:35 | 58.17949 | 6.38140 | 25242 ft | 423 kts | 158° |
| 2026-04-14 15:35 | 58.15233 | 6.40336 | 25492 ft | 426 kts | 159° |
| 2026-04-14 15:36 | 58.12491 | 6.42535 | 25736 ft | 429 kts | 159° |
| 2026-04-14 15:36 | 58.09727 | 6.44745 | 25975 ft | 433 kts | 159° |
| 2026-04-14 15:36 | 58.06941 | 6.46962 | 26230 ft | 436 kts | 159° |
| 2026-04-14 15:36 | 58.04139 | 6.49192 | 26482 ft | 439 kts | 159° |
| 2026-04-14 15:37 | 58.01320 | 6.51436 | 26736 ft | 442 kts | 159° |
| 2026-04-14 15:37 | 57.98476 | 6.53699 | 26995 ft | 445 kts | 159° |
| 2026-04-14 15:37 | 57.95612 | 6.55979 | 27255 ft | 448 kts | 159° |
| 2026-04-14 15:37 | 57.92731 | 6.58269 | 27514 ft | 451 kts | 159° |
| 2026-04-14 15:38 | 57.89827 | 6.60571 | 27780 ft | 454 kts | 159° |
| 2026-04-14 15:38 | 57.86902 | 6.62878 | 28044 ft | 458 kts | 160° |
| 2026-04-14 15:38 | 57.83956 | 6.65195 | 28315 ft | 461 kts | 160° |
| 2026-04-14 15:38 | 57.80990 | 6.67524 | 28584 ft | 464 kts | 160° |
| 2026-04-14 15:39 | 57.78003 | 6.69864 | 28859 ft | 466 kts | 160° |
| 2026-04-14 15:39 | 57.75002 | 6.72218 | 29139 ft | 469 kts | 160° |
| 2026-04-14 15:39 | 57.71986 | 6.74580 | 29415 ft | 471 kts | 160° |
| 2026-04-14 15:39 | 57.68953 | 6.76952 | 29689 ft | 473 kts | 160° |
| 2026-04-14 15:40 | 57.65910 | 6.79335 | 29980 ft | 475 kts | 160° |
| 2026-04-14 15:40 | 57.62856 | 6.81723 | 30254 ft | 477 kts | 160° |
| 2026-04-14 15:40 | 57.59786 | 6.84112 | 30488 ft | 479 kts | 160° |
| 2026-04-14 15:40 | 57.56706 | 6.86500 | 30725 ft | 480 kts | 160° |
| 2026-04-14 15:41 | 57.53617 | 6.88888 | 30971 ft | 481 kts | 160° |
| 2026-04-14 15:41 | 57.50523 | 6.91281 | 31213 ft | 482 kts | 160° |
| 2026-04-14 15:41 | 57.47468 | 6.93643 | 31442 ft | 482 kts | 160° |
| 2026-04-14 15:41 | 57.44368 | 6.96039 | 31688 ft | 482 kts | 160° |
| 2026-04-14 15:42 | 57.41272 | 6.98426 | 31942 ft | 482 kts | 160° |
| 2026-04-14 15:42 | 57.38171 | 7.00808 | 32191 ft | 482 kts | 160° |
| 2026-04-14 15:42 | 57.35071 | 7.03182 | 32441 ft | 481 kts | 160° |
| 2026-04-14 15:42 | 57.31977 | 7.05549 | 32698 ft | 481 kts | 161° |
| 2026-04-14 15:43 | 57.28888 | 7.07905 | 32958 ft | 481 kts | 161° |
| 2026-04-14 15:43 | 57.25794 | 7.10261 | 33216 ft | 480 kts | 161° |
| 2026-04-14 15:43 | 57.22711 | 7.12611 | 33476 ft | 480 kts | 161° |
| 2026-04-14 15:43 | 57.19627 | 7.14960 | 33742 ft | 479 kts | 161° |
| 2026-04-14 15:44 | 57.16545 | 7.17299 | 34011 ft | 478 kts | 161° |
| 2026-04-14 15:44 | 57.13468 | 7.19627 | 34257 ft | 478 kts | 161° |
| 2026-04-14 15:44 | 57.10400 | 7.21947 | 34484 ft | 477 kts | 161° |
| 2026-04-14 15:44 | 57.07331 | 7.24262 | 34704 ft | 477 kts | 161° |
| 2026-04-14 15:45 | 57.04265 | 7.26567 | 34935 ft | 476 kts | 161° |
| 2026-04-14 15:45 | 57.01194 | 7.28868 | 35103 ft | 476 kts | 161° |
| 2026-04-14 15:45 | 56.95062 | 7.33444 | 35148 ft | 476 kts | 161° |
| 2026-04-14 15:46 | 56.88931 | 7.38020 | 35151 ft | 476 kts | 161° |
| 2026-04-14 15:46 | 56.82801 | 7.42584 | 35156 ft | 476 kts | 161° |
| 2026-04-14 15:47 | 56.76664 | 7.47131 | 35156 ft | 476 kts | 161° |
| 2026-04-14 15:47 | 56.70529 | 7.51656 | 35157 ft | 476 kts | 161° |
| 2026-04-14 15:48 | 56.64389 | 7.56182 | 35149 ft | 476 kts | 161° |
| 2026-04-14 15:48 | 56.59281 | 7.59922 | 35153 ft | 476 kts | 161° |
| 2026-04-14 15:49 | 56.53142 | 7.64415 | 35150 ft | 476 kts | 161° |
| 2026-04-14 15:49 | 56.46993 | 7.68906 | 35146 ft | 476 kts | 161° |
| 2026-04-14 15:50 | 56.39841 | 7.74091 | 35150 ft | 477 kts | 161° |
| 2026-04-14 15:50 | 56.34681 | 7.77830 | 35151 ft | 477 kts | 161° |
| 2026-04-14 15:51 | 56.28513 | 7.82278 | 35149 ft | 477 kts | 162° |
| 2026-04-14 15:51 | 56.22348 | 7.86720 | 35158 ft | 477 kts | 162° |
| 2026-04-14 15:52 | 56.16181 | 7.91142 | 35159 ft | 477 kts | 162° |
| 2026-04-14 15:52 | 56.10007 | 7.95538 | 35169 ft | 478 kts | 162° |
| 2026-04-14 15:53 | 56.03867 | 7.99894 | 35168 ft | 478 kts | 162° |
| 2026-04-14 15:53 | 55.97684 | 8.04284 | 35175 ft | 478 kts | 162° |
| 2026-04-14 15:54 | 55.88405 | 8.10833 | 35182 ft | 478 kts | 162° |
| 2026-04-14 15:55 | 55.82206 | 8.15180 | 35186 ft | 479 kts | 162° |
| 2026-04-14 15:55 | 55.76009 | 8.19497 | 35193 ft | 479 kts | 162° |
| 2026-04-14 15:56 | 55.69814 | 8.23831 | 35195 ft | 478 kts | 162° |
| 2026-04-14 15:56 | 55.63623 | 8.28143 | 35194 ft | 478 kts | 162° |
| 2026-04-14 15:57 | 55.57426 | 8.32438 | 35192 ft | 478 kts | 162° |
| 2026-04-14 15:57 | 55.51238 | 8.36723 | 35190 ft | 478 kts | 162° |
| 2026-04-14 15:58 | 55.45045 | 8.40986 | 35185 ft | 477 kts | 162° |
| 2026-04-14 15:58 | 55.38859 | 8.45231 | 35183 ft | 477 kts | 162° |
| 2026-04-14 15:59 | 55.32671 | 8.49468 | 35181 ft | 477 kts | 162° |
| 2026-04-14 15:59 | 55.26489 | 8.53688 | 35185 ft | 477 kts | 163° |
| 2026-04-14 16:00 | 55.20347 | 8.57861 | 35181 ft | 476 kts | 163° |
| 2026-04-14 16:00 | 55.14172 | 8.62034 | 35188 ft | 476 kts | 163° |
| 2026-04-14 16:01 | 55.07992 | 8.66196 | 35190 ft | 476 kts | 163° |
| 2026-04-14 16:01 | 55.01776 | 8.70371 | 35190 ft | 475 kts | 163° |
| 2026-04-14 16:02 | 54.95646 | 8.74469 | 35191 ft | 475 kts | 163° |
| 2026-04-14 16:02 | 54.89473 | 8.78595 | 35191 ft | 475 kts | 163° |
| 2026-04-14 16:03 | 54.83298 | 8.82690 | 35192 ft | 475 kts | 163° |
| 2026-04-14 16:03 | 54.77119 | 8.86734 | 35191 ft | 475 kts | 163° |
| 2026-04-14 16:04 | 54.70942 | 8.90773 | 35197 ft | 474 kts | 163° |
| 2026-04-14 16:04 | 54.64778 | 8.94812 | 35337 ft | 474 kts | 163° |
| 2026-04-14 16:04 | 54.61696 | 8.96834 | 35440 ft | 474 kts | 163° |
| 2026-04-14 16:05 | 54.58617 | 8.98856 | 35588 ft | 473 kts | 163° |
| 2026-04-14 16:05 | 54.55544 | 9.00876 | 35732 ft | 472 kts | 162° |
| 2026-04-14 16:05 | 54.52474 | 9.02897 | 35902 ft | 472 kts | 162° |
| 2026-04-14 16:05 | 54.49411 | 9.04916 | 36097 ft | 472 kts | 162° |
| 2026-04-14 16:06 | 54.46347 | 9.06940 | 36321 ft | 471 kts | 162° |
| 2026-04-14 16:06 | 54.43283 | 9.08912 | 36499 ft | 470 kts | 163° |
| 2026-04-14 16:06 | 54.40211 | 9.10826 | 36677 ft | 469 kts | 163° |
| 2026-04-14 16:06 | 54.37146 | 9.12721 | 36851 ft | 468 kts | 163° |
| 2026-04-14 16:07 | 54.34083 | 9.14632 | 37032 ft | 467 kts | 163° |
| 2026-04-14 16:07 | 54.31038 | 9.16558 | 37209 ft | 467 kts | 162° |
| 2026-04-14 16:07 | 54.27997 | 9.18495 | 37400 ft | 466 kts | 162° |
| 2026-04-14 16:07 | 54.24955 | 9.20435 | 37575 ft | 466 kts | 162° |
| 2026-04-14 16:08 | 54.21923 | 9.22366 | 37761 ft | 465 kts | 162° |
| 2026-04-14 16:08 | 54.18934 | 9.24271 | 37938 ft | 464 kts | 162° |
| 2026-04-14 16:08 | 54.15875 | 9.26219 | 38146 ft | 463 kts | 162° |
| 2026-04-14 16:08 | 54.12860 | 9.28137 | 38325 ft | 462 kts | 162° |
| 2026-04-14 16:09 | 54.09895 | 9.30020 | 38516 ft | 461 kts | 162° |
| 2026-04-14 16:09 | 54.06893 | 9.31924 | 38716 ft | 459 kts | 162° |
| 2026-04-14 16:09 | 54.03903 | 9.33816 | 38831 ft | 457 kts | 162° |
| 2026-04-14 16:09 | 54.00928 | 9.35694 | 38208 ft | 456 kts | 162° |
| 2026-04-14 16:10 | 53.97948 | 9.37567 | 37456 ft | 457 kts | 162° |
| 2026-04-14 16:10 | 53.94959 | 9.39442 | 36690 ft | 458 kts | 163° |
| 2026-04-14 16:10 | 53.91994 | 9.41302 | 35924 ft | 460 kts | 163° |
| 2026-04-14 16:10 | 53.88986 | 9.43186 | 35142 ft | 462 kts | 163° |
| 2026-04-14 16:11 | 53.85954 | 9.45077 | 34363 ft | 465 kts | 163° |
| 2026-04-14 16:11 | 53.82913 | 9.46966 | 33488 ft | 467 kts | 163° |
| 2026-04-14 16:11 | 53.79861 | 9.48861 | 32664 ft | 467 kts | 163° |
| 2026-04-14 16:11 | 53.76818 | 9.50758 | 32370 ft | 467 kts | 163° |
| 2026-04-14 16:12 | 53.73760 | 9.52661 | 32108 ft | 468 kts | 163° |
| 2026-04-14 16:12 | 53.70704 | 9.54561 | 31851 ft | 468 kts | 163° |
| 2026-04-14 16:12 | 53.67629 | 9.56329 | 31600 ft | 465 kts | 168° |
| 2026-04-14 16:12 | 53.64465 | 9.57337 | 31340 ft | 461 kts | 178° |
| 2026-04-14 16:13 | 53.61277 | 9.57497 | 31091 ft | 456 kts | 187° |
| 2026-04-14 16:13 | 53.58116 | 9.57118 | 30845 ft | 456 kts | 187° |
| 2026-04-14 16:13 | 53.54949 | 9.56729 | 30595 ft | 457 kts | 187° |
| 2026-04-14 16:13 | 53.51783 | 9.56338 | 30096 ft | 454 kts | 188° |
| 2026-04-14 16:14 | 53.48648 | 9.55819 | 29186 ft | 451 kts | 189° |
| 2026-04-14 16:14 | 53.45553 | 9.55169 | 28452 ft | 445 kts | 191° |
| 2026-04-14 16:14 | 53.42503 | 9.54451 | 27744 ft | 440 kts | 191° |
| 2026-04-14 16:14 | 53.39490 | 9.53721 | 27068 ft | 435 kts | 191° |
| 2026-04-14 16:15 | 53.36510 | 9.53013 | 26429 ft | 430 kts | 191° |
| 2026-04-14 16:15 | 53.33562 | 9.52337 | 25802 ft | 426 kts | 191° |
| 2026-04-14 16:15 | 53.30640 | 9.51694 | 25190 ft | 421 kts | 190° |
| 2026-04-14 16:15 | 53.27743 | 9.51075 | 24589 ft | 417 kts | 190° |
| 2026-04-14 16:16 | 53.24879 | 9.50471 | 24007 ft | 413 kts | 190° |
| 2026-04-14 16:16 | 53.22042 | 9.49870 | 23378 ft | 409 kts | 190° |
| 2026-04-14 16:16 | 53.19230 | 9.49272 | 22731 ft | 405 kts | 190° |
| 2026-04-14 16:16 | 53.16447 | 9.48678 | 22130 ft | 402 kts | 190° |
| 2026-04-14 16:17 | 53.13686 | 9.48088 | 21542 ft | 398 kts | 190° |
| 2026-04-14 16:17 | 53.10949 | 9.47505 | 20987 ft | 395 kts | 190° |
| 2026-04-14 16:17 | 53.08233 | 9.46925 | 20445 ft | 392 kts | 190° |
| 2026-04-14 16:17 | 53.05541 | 9.46354 | 19920 ft | 389 kts | 190° |
| 2026-04-14 16:18 | 53.02867 | 9.45791 | 19409 ft | 386 kts | 190° |
| 2026-04-14 16:18 | 53.00216 | 9.45233 | 18909 ft | 383 kts | 190° |
| 2026-04-14 16:18 | 52.97586 | 9.44677 | 18402 ft | 380 kts | 190° |
| 2026-04-14 16:18 | 52.95007 | 9.44125 | 17852 ft | 377 kts | 190° |
| 2026-04-14 16:19 | 52.92416 | 9.43569 | 17302 ft | 374 kts | 190° |
| 2026-04-14 16:19 | 52.89844 | 9.43016 | 16774 ft | 372 kts | 190° |
| 2026-04-14 16:19 | 52.87286 | 9.42466 | 16256 ft | 369 kts | 190° |
| 2026-04-14 16:19 | 52.84754 | 9.41924 | 15737 ft | 366 kts | 190° |
| 2026-04-14 16:20 | 52.82232 | 9.41386 | 15188 ft | 362 kts | 189° |
| 2026-04-14 16:20 | 52.79745 | 9.40899 | 14418 ft | 360 kts | 185° |
| 2026-04-14 16:20 | 52.77271 | 9.41436 | 13665 ft | 361 kts | 163° |
| 2026-04-14 16:20 | 52.75063 | 9.43380 | 12865 ft | 361 kts | 146° |
| 2026-04-14 16:21 | 52.73071 | 9.45853 | 12071 ft | 357 kts | 144° |
| 2026-04-14 16:21 | 52.71108 | 9.48337 | 11426 ft | 353 kts | 144° |
| 2026-04-14 16:21 | 52.69181 | 9.50849 | 11216 ft | 353 kts | 139° |
| 2026-04-14 16:21 | 52.67690 | 9.54000 | 10618 ft | 349 kts | 118° |
| 2026-04-14 16:22 | 52.66716 | 9.57554 | 10399 ft | 330 kts | 114° |
| 2026-04-14 16:22 | 52.65854 | 9.60905 | 10252 ft | 305 kts | 114° |
| 2026-04-14 16:22 | 52.65051 | 9.64060 | 9806 ft | 294 kts | 114° |
| 2026-04-14 16:22 | 52.64265 | 9.67145 | 9238 ft | 291 kts | 114° |
| 2026-04-14 16:23 | 52.63489 | 9.70189 | 8718 ft | 287 kts | 114° |
| 2026-04-14 16:23 | 52.62719 | 9.73203 | 8180 ft | 284 kts | 114° |
| 2026-04-14 16:23 | 52.61952 | 9.76190 | 7618 ft | 282 kts | 114° |
| 2026-04-14 16:23 | 52.61190 | 9.79143 | 7077 ft | 279 kts | 114° |
| 2026-04-14 16:24 | 52.60431 | 9.82066 | 6564 ft | 276 kts | 114° |
| 2026-04-14 16:24 | 52.59679 | 9.84948 | 6001 ft | 273 kts | 114° |
| 2026-04-14 16:24 | 52.58925 | 9.87818 | 5533 ft | 273 kts | 114° |
| 2026-04-14 16:24 | 52.58173 | 9.90667 | 5136 ft | 271 kts | 114° |
| 2026-04-14 16:25 | 52.57447 | 9.93409 | 5000 ft | 250 kts | 114° |
| 2026-04-14 16:25 | 52.56781 | 9.95938 | 4675 ft | 238 kts | 114° |
| 2026-04-14 16:25 | 52.56122 | 9.98412 | 4187 ft | 236 kts | 114° |
| 2026-04-14 16:25 | 52.55403 | 10.00778 | 3889 ft | 233 kts | 128° |
| 2026-04-14 16:26 | 52.54148 | 10.02366 | 3606 ft | 229 kts | 161° |
| 2026-04-14 16:26 | 52.52591 | 10.02701 | 3279 ft | 227 kts | 181° |
| 2026-04-14 16:26 | 52.51013 | 10.02580 | 3000 ft | 226 kts | 184° |
| 2026-04-14 16:26 | 52.49436 | 10.02403 | 2986 ft | 228 kts | 184° |
| 2026-04-14 16:27 | 52.47852 | 10.02219 | 2988 ft | 229 kts | 184° |
| 2026-04-14 16:27 | 52.46264 | 10.02026 | 2986 ft | 229 kts | 184° |
| 2026-04-14 16:27 | 52.44682 | 10.01755 | 2978 ft | 229 kts | 195° |
| 2026-04-14 16:27 | 52.43393 | 10.00346 | 2986 ft | 227 kts | 236° |
| 2026-04-14 16:28 | 52.42995 | 9.97907 | 2990 ft | 226 kts | 278° |
| 2026-04-14 16:28 | 52.43621 | 9.95582 | 3000 ft | 226 kts | 304° |
| 2026-04-14 16:28 | 52.44437 | 9.93373 | 2950 ft | 228 kts | 292° |
| 2026-04-14 16:28 | 52.44805 | 9.90876 | 2711 ft | 224 kts | 277° |
| 2026-04-14 16:29 | 52.44913 | 9.88369 | 2427 ft | 215 kts | 273° |
| 2026-04-14 16:29 | 52.44975 | 9.86037 | 2173 ft | 195 kts | 274° |
| 2026-04-14 16:29 | 52.45035 | 9.83910 | 1896 ft | 179 kts | 274° |
| 2026-04-14 16:29 | 52.45092 | 9.81935 | 1637 ft | 167 kts | 274° |
| 2026-04-14 16:30 | 52.45144 | 9.80137 | 1445 ft | 150 kts | 274° |
| 2026-04-14 16:30 | 52.45191 | 9.78492 | 1219 ft | 141 kts | 275° |
| 2026-04-14 16:30 | 52.45237 | 9.76906 | 980 ft | 138 kts | 275° |
| 2026-04-14 16:30 | 52.45282 | 9.75344 | 766 ft | 137 kts | 274° |
| 2026-04-14 16:31 | 52.45327 | 9.73786 | 575 ft | 137 kts | 275° |
| 2026-04-14 16:31 | 52.45369 | 9.72244 | 359 ft | 137 kts | 275° |
| 2026-04-14 16:31 | 52.45419 | 9.70667 | 194 ft | 136 kts | 276° |
| 2026-04-14 16:31 | 52.45450 | 9.69517 | 190 ft | 57 kts | 271° |
| 2026-04-14 16:32 | 52.45458 | 9.69196 | 198 ft | 12 kts | 274° |
| 2026-04-14 16:32 | 52.45513 | 9.69133 | 191 ft | 9 kts | 355° |
| 2026-04-14 16:32 | 52.45553 | 9.69134 | 197 ft | 0 kts | 2° |
| 2026-04-14 16:33 | 52.45576 | 9.69136 | 199 ft | 8 kts | 2° |
| 2026-04-14 16:33 | 52.45633 | 9.69140 | 191 ft | 7 kts | 3° |
| 2026-04-14 16:34 | 52.45679 | 9.69145 | 194 ft | 6 kts | 4° |
| 2026-04-14 16:34 | 52.45720 | 9.69150 | 191 ft | 6 kts | 7° |
| 2026-04-14 16:34 | 52.45754 | 9.69175 | 191 ft | 5 kts | 30° |
| 2026-04-14 16:34 | 52.45811 | 9.69202 | 191 ft | 10 kts | 352° |
| 2026-04-14 16:35 | 52.45869 | 9.69145 | 191 ft | 9 kts | 342° |
| 2026-04-14 16:35 | 52.45921 | 9.69187 | 194 ft | 9 kts | 67° |
| 2026-04-14 16:35 | 52.45918 | 9.69277 | 202 ft | 5 kts | 93° |
| 2026-04-14 16:35 | 52.45918 | 9.69297 | 191 ft | 0 kts | 92° |